createdAt,value
2019-04-27T00:01:57.047Z,95128.12
2019-04-27T00:04:48.695Z,95125.83
2019-04-27T00:07:36.089Z,95118.75
2019-04-27T00:10:10.332Z,95120.84
2019-04-27T00:12:37.765Z,95112.45
2019-04-27T00:15:06.504Z,95116.37
2019-04-27T00:17:58.485Z,95119.77
2019-04-27T00:20:37.693Z,95114.73
2019-04-27T00:23:08.632Z,95115.58
2019-04-27T00:25:36.205Z,95112.44
2019-04-27T00:28:05.342Z,95115.77
2019-04-27T00:30:35.657Z,95117.46
2019-04-27T00:33:05.156Z,95112.27
2019-04-27T00:35:46.213Z,95109.16
2019-04-27T00:38:23.236Z,95111.61
2019-04-27T00:40:55.491Z,95113.38
2019-04-27T00:43:23.055Z,95114.97
2019-04-27T00:45:50.531Z,95110.30
2019-04-27T00:48:17.953Z,95112.34
2019-04-27T00:50:45.497Z,95111.31
2019-04-27T00:53:13.527Z,95107.22
2019-04-27T00:55:57.385Z,95105.58
2019-04-27T00:58:34.009Z,95112.68
2019-04-27T01:01:16.075Z,95109.54
2019-04-27T01:03:47.392Z,95120.78
2019-04-27T01:06:14.985Z,95121.23
2019-04-27T01:08:42.804Z,95110.91
2019-04-27T01:11:11.942Z,95110.05
2019-04-27T01:13:39.497Z,95098.70
2019-04-27T01:16:08.634Z,95102.97
2019-04-27T01:18:36.255Z,95085.88
2019-04-27T01:21:03.849Z,95093.20
2019-04-27T01:23:31.321Z,95100.42
2019-04-27T01:26:18.697Z,95080.42
2019-04-27T01:28:54.376Z,95084.87
2019-04-27T01:31:22.468Z,95083.72
2019-04-27T01:33:49.936Z,95081.09
2019-04-27T01:36:19.029Z,95092.53
2019-04-27T01:38:46.559Z,95083.09
2019-04-27T01:41:14.134Z,95084.25
2019-04-27T01:43:41.607Z,95084.13
2019-04-27T01:46:09.252Z,95087.81
2019-04-27T01:48:36.742Z,95078.84
2019-04-27T01:51:04.426Z,95078.64
2019-04-27T01:53:31.864Z,95077.47
2019-04-27T01:55:59.475Z,95075.98
2019-04-27T01:58:26.992Z,95065.94
2019-04-27T02:01:22.688Z,95076.67
2019-04-27T02:04:09.227Z,95073.74
2019-04-27T02:06:38.562Z,95068.55
2019-04-27T02:09:09.126Z,95063.08
2019-04-27T02:11:36.731Z,95063.21
2019-04-27T02:14:04.507Z,95054.75
2019-04-27T02:16:32.063Z,95059.65
2019-04-27T02:18:59.550Z,95054.09
2019-04-27T02:21:27.066Z,95055.98
2019-04-27T02:23:54.627Z,95068.92
2019-04-27T02:26:22.209Z,95063.86
2019-04-27T02:29:13.009Z,95064.85
2019-04-27T02:32:02.730Z,95061.98
2019-04-27T02:34:32.306Z,95060.55
2019-04-27T02:37:02.722Z,95064.56
2019-04-27T02:39:29.862Z,95063.27
2019-04-27T02:41:59.908Z,95067.48
2019-04-27T02:44:33.067Z,95059.19
2019-04-27T02:47:00.656Z,95055.49
2019-04-27T02:49:30.449Z,95056.81
2019-04-27T02:52:30.100Z,95057.08
2019-04-27T02:54:59.361Z,95048.95
2019-04-27T02:57:29.726Z,95037.05
2019-04-27T02:59:56.569Z,95041.13
2019-04-27T03:02:30.135Z,95038.83
2019-04-27T03:05:00.300Z,95031.47
2019-04-27T03:07:27.126Z,95040.09
2019-04-27T03:09:54.599Z,95041.59
2019-04-27T03:12:24.791Z,95040.92
2019-04-27T03:15:10.213Z,95037.47
2019-04-27T03:18:02.612Z,95043.62
2019-04-27T03:20:45.791Z,95049.03
2019-04-27T03:23:13.603Z,95033.14
2019-04-27T03:26:00.803Z,95036.83
2019-04-27T03:28:29.833Z,95035.27
2019-04-27T03:31:01.930Z,95026.33
2019-04-27T03:33:27.090Z,95032.55
2019-04-27T03:35:55.734Z,95030.54
2019-04-27T03:38:23.585Z,95024.55
2019-04-27T03:40:52.926Z,95026.34
2019-04-27T03:43:23.723Z,95033.09
2019-04-27T03:45:52.513Z,95029.05
2019-04-27T03:48:20.867Z,95029.69
2019-04-27T03:51:09.951Z,95027.78
2019-04-27T03:53:42.011Z,95023.77
2019-04-27T03:56:30.429Z,95018.04
2019-04-27T03:59:04.700Z,95027.59
2019-04-27T04:01:32.285Z,95024.94
2019-04-27T04:03:59.959Z,95024.34
2019-04-27T04:06:29.493Z,95030.69
2019-04-27T04:08:59.932Z,95032.39
2019-04-27T04:11:34.281Z,95028.79
2019-04-27T04:14:06.197Z,95029.99
2019-04-27T04:16:45.927Z,95032.47
2019-04-27T04:19:13.965Z,95041.40
2019-04-27T04:21:41.487Z,95032.05
2019-04-27T04:24:11.653Z,95025.27
2019-04-27T04:26:40.217Z,95025.45
2019-04-27T04:29:10.241Z,95029.09
2019-04-27T04:31:40.126Z,95023.29
2019-04-27T04:34:06.676Z,95018.19
2019-04-27T04:36:34.165Z,95019.30
2019-04-27T04:39:01.742Z,95021.34
2019-04-27T04:41:59.761Z,95011.71
2019-04-27T04:44:39.947Z,95014.16
2019-04-27T04:47:30.572Z,95018.53
2019-04-27T04:50:08.471Z,95015.48
2019-04-27T04:52:29.468Z,95021.43
2019-04-27T04:54:59.382Z,95018.33
2019-04-27T04:57:26.682Z,95017.02
2019-04-27T04:59:54.416Z,95025.17
2019-04-27T05:02:21.945Z,95023.52
2019-04-27T05:04:49.331Z,95017.78
2019-04-27T05:07:16.770Z,95020.64
2019-04-27T05:09:44.222Z,95011.09
2019-04-27T05:12:14.260Z,95019.66
2019-04-27T05:14:41.738Z,95015.30
2019-04-27T05:17:09.515Z,95016.98
2019-04-27T05:19:38.831Z,95020.41
2019-04-27T05:22:06.437Z,95028.77
2019-04-27T05:24:33.988Z,95020.94
2019-04-27T05:27:01.379Z,95023.47
2019-04-27T05:29:29.411Z,95020.80
2019-04-27T05:31:59.052Z,95024.41
2019-04-27T05:34:26.513Z,95013.14
2019-04-27T05:36:53.969Z,95014.89
2019-04-27T05:39:25.165Z,95009.16
2019-04-27T05:41:50.888Z,95020.68
2019-04-27T05:44:41.347Z,95016.11
2019-04-27T05:47:16.686Z,95010.02
2019-04-27T05:49:48.532Z,95012.23
2019-04-27T05:52:29.792Z,95010.48
2019-04-27T05:54:58.947Z,95014.08
2019-04-27T05:57:30.744Z,95016.42
2019-04-27T06:00:01.117Z,95015.91
2019-04-27T06:02:30.229Z,95015.58
2019-04-27T06:05:00.090Z,95008.94
2019-04-27T06:07:29.417Z,95016.34
2019-04-27T06:09:56.916Z,95010.26
2019-04-27T06:12:24.430Z,95010.55
2019-04-27T06:14:51.950Z,95009.50
2019-04-27T06:17:19.582Z,95014.63
2019-04-27T06:19:49.200Z,95007.20
2019-04-27T06:22:16.684Z,95008.30
2019-04-27T06:24:44.207Z,95005.30
2019-04-27T06:27:11.904Z,95000.53
2019-04-27T06:29:40.875Z,94993.13
2019-04-27T06:32:09.005Z,95000.80
2019-04-27T06:34:39.029Z,94991.34
2019-04-27T06:37:06.790Z,94994.98
2019-04-27T06:39:34.408Z,94985.91
2019-04-27T06:42:01.896Z,94989.94
2019-04-27T06:44:29.479Z,94986.46
2019-04-27T06:46:56.990Z,94992.52
2019-04-27T06:49:24.453Z,94987.89
2019-04-27T06:51:52.020Z,94993.26
2019-04-27T06:54:21.226Z,95000.27
2019-04-27T06:56:49.282Z,94989.11
2019-04-27T06:59:18.521Z,94995.36
2019-04-27T07:01:46.051Z,94985.87
2019-04-27T07:04:13.644Z,94984.58
2019-04-27T07:06:53.232Z,94983.98
2019-04-27T07:09:10.919Z,94988.86
2019-04-27T07:11:39.393Z,94982.50
2019-04-27T07:14:11.175Z,94982.67
2019-04-27T07:16:39.065Z,94984.42
2019-04-27T07:19:06.760Z,94976.05
2019-04-27T07:21:34.343Z,94976.88
2019-04-27T07:24:01.838Z,94976.30
2019-04-27T07:26:30.241Z,94980.03
2019-04-27T07:28:59.566Z,94977.34
2019-04-27T07:31:29.508Z,94981.41
2019-04-27T07:33:57.309Z,94992.14
2019-04-27T07:36:24.701Z,94982.34
2019-04-27T07:38:52.463Z,94974.41
2019-04-27T07:41:20.308Z,94968.98
2019-04-27T07:44:03.044Z,94971.84
2019-04-27T07:46:31.843Z,94965.78
2019-04-27T07:48:59.570Z,94963.50
2019-04-27T07:51:32.108Z,94960.37
2019-04-27T07:53:58.774Z,94970.77
2019-04-27T07:56:26.368Z,94967.03
2019-04-27T07:58:53.994Z,94969.48
2019-04-27T08:01:21.464Z,94964.58
2019-04-27T08:03:49.134Z,94955.41
2019-04-27T08:06:18.841Z,94962.55
2019-04-27T08:08:46.362Z,94948.63
2019-04-27T08:11:13.978Z,94954.87
2019-04-27T08:13:41.478Z,94954.41
2019-04-27T08:16:09.123Z,94942.95
2019-04-27T08:18:36.741Z,94951.52
2019-04-27T08:21:04.414Z,94944.34
2019-04-27T08:23:31.875Z,94942.47
2019-04-27T08:25:59.309Z,94951.02
2019-04-27T08:28:43.577Z,94935.65
2019-04-27T08:31:18.837Z,94930.12
2019-04-27T08:33:46.424Z,94930.77
2019-04-27T08:36:13.843Z,94932.45
2019-04-27T08:38:41.517Z,94928.24
2019-04-27T08:41:09.089Z,94921.52
2019-04-27T08:43:38.863Z,94925.35
2019-04-27T08:46:06.479Z,94932.33
2019-04-27T08:48:36.925Z,94921.56
2019-04-27T08:51:03.448Z,94914.50
2019-04-27T08:53:30.930Z,94909.61
2019-04-27T08:55:59.194Z,94911.73
2019-04-27T08:58:28.487Z,94903.58
2019-04-27T09:00:56.103Z,94902.92
2019-04-27T09:03:24.043Z,94895.62
2019-04-27T09:05:51.506Z,94890.48
2019-04-27T09:08:34.403Z,94891.66
2019-04-27T09:11:18.674Z,94889.20
2019-04-27T09:14:06.327Z,94881.69
2019-04-27T09:17:00.041Z,94881.69
2019-04-27T09:19:33.926Z,94877.44
2019-04-27T09:22:12.738Z,94865.58
2019-04-27T09:24:31.549Z,94865.58
2019-04-27T09:26:59.605Z,94861.19
2019-04-27T09:29:27.382Z,94857.33
2019-04-27T09:31:54.933Z,94864.64
2019-04-27T09:34:22.447Z,94853.02
2019-04-27T09:36:49.879Z,94840.95
2019-04-27T09:39:17.322Z,94840.95
2019-04-27T09:41:46.031Z,94834.16
2019-04-27T09:44:15.949Z,94831.30
2019-04-27T09:46:43.537Z,94833.14
2019-04-27T09:49:12.190Z,94825.98
2019-04-27T09:51:39.831Z,94814.58
2019-04-27T09:54:07.367Z,94814.58
2019-04-27T09:56:36.353Z,94801.57
2019-04-27T09:59:04.134Z,94806.95
2019-04-27T10:01:31.663Z,94812.45
2019-04-27T10:03:59.180Z,94809.47
2019-04-27T10:06:29.876Z,94802.01
2019-04-27T10:08:57.673Z,94803.22
2019-04-27T10:11:26.466Z,94794.03
2019-04-27T10:13:55.612Z,94789.81
2019-04-27T10:16:23.495Z,94787.09
2019-04-27T10:18:50.987Z,94771.06
2019-04-27T10:21:18.412Z,94773.52
2019-04-27T10:23:46.976Z,94766.71
2019-04-27T10:26:15.787Z,94754.73
2019-04-27T10:28:43.357Z,94744.34
2019-04-27T10:31:10.733Z,94739.89
2019-04-27T10:33:38.302Z,94746.36
2019-04-27T10:36:06.481Z,94748.99
2019-04-27T10:38:35.849Z,94740.66
2019-04-27T10:41:03.620Z,94743.95
2019-04-27T10:43:31.095Z,94732.31
2019-04-27T10:45:58.555Z,94732.31
2019-04-27T10:48:26.607Z,94720.03
2019-04-27T10:50:54.096Z,94711.34
2019-04-27T10:53:21.605Z,94700.53
2019-04-27T10:55:49.004Z,94699.18
2019-04-27T10:58:16.522Z,94694.72
2019-04-27T11:00:48.990Z,94682.55
2019-04-27T11:03:19.799Z,94683.03
2019-04-27T11:06:16.052Z,94682.75
2019-04-27T11:08:43.619Z,94684.89
2019-04-27T11:11:11.189Z,94679.03
2019-04-27T11:13:38.716Z,94677.33
2019-04-27T11:16:06.321Z,94686.52
2019-04-27T11:18:33.839Z,94677.88
2019-04-27T11:21:01.423Z,94668.86
2019-04-27T11:23:28.873Z,94673.05
2019-04-27T11:25:56.485Z,94658.92
2019-04-27T11:28:25.868Z,94659.76
2019-04-27T11:30:53.536Z,94655.98
2019-04-27T11:33:20.922Z,94651.36
2019-04-27T11:35:54.944Z,94655.81
2019-04-27T11:38:22.475Z,94639.75
2019-04-27T11:40:49.959Z,94640.81
2019-04-27T11:43:18.015Z,94626.05
2019-04-27T11:45:45.891Z,94620.51
2019-04-27T11:48:13.409Z,94627.21
2019-04-27T11:50:41.009Z,94628.09
2019-04-27T11:53:19.754Z,94628.09
2019-04-27T11:55:37.942Z,94632.64
2019-04-27T11:58:06.555Z,94637.66
2019-04-27T12:00:34.310Z,94653.62
2019-04-27T12:03:01.853Z,94654.14
2019-04-27T12:05:29.315Z,94651.44
2019-04-27T12:07:56.847Z,94650.47
2019-04-27T12:10:26.311Z,94655.99
2019-04-27T12:12:53.853Z,94647.89
2019-04-27T12:15:21.664Z,94639.17
2019-04-27T12:17:49.251Z,94640.34
2019-04-27T12:20:17.947Z,94638.41
2019-04-27T12:22:45.730Z,94657.52
2019-04-27T12:25:13.778Z,94671.08
2019-04-27T12:28:00.253Z,94681.06
2019-04-27T12:30:41.161Z,94711.38
2019-04-27T12:33:08.984Z,94699.64
2019-04-27T12:35:36.854Z,94698.06
2019-04-27T12:38:05.871Z,94729.41
2019-04-27T12:40:33.633Z,94737.15
2019-04-27T12:43:01.265Z,94703.42
2019-04-27T12:45:28.987Z,94695.91
2019-04-27T12:47:56.723Z,94728.18
2019-04-27T12:50:26.262Z,94755.88
2019-04-27T12:52:57.848Z,94753.02
2019-04-27T12:55:46.418Z,94774.63
2019-04-27T12:58:39.784Z,94791.94
2019-04-27T13:01:09.688Z,94759.88
2019-04-27T13:03:37.150Z,94730.39
2019-04-27T13:06:04.796Z,94722.39
2019-04-27T13:08:32.187Z,94721.02
2019-04-27T13:11:00.945Z,94705.92
2019-04-27T13:13:28.577Z,94727.83
2019-04-27T13:15:56.521Z,94718.13
2019-04-27T13:18:25.829Z,94700.22
2019-04-27T13:20:54.045Z,94676.10
2019-04-27T13:23:21.662Z,94660.88
2019-04-27T13:25:49.157Z,94661.70
2019-04-27T13:28:18.588Z,94655.09
2019-04-27T13:30:47.607Z,94658.75
2019-04-27T13:33:17.228Z,94672.84
2019-04-27T13:35:44.622Z,94666.84
2019-04-27T13:38:12.099Z,94679.62
2019-04-27T13:40:39.989Z,94687.05
2019-04-27T13:43:13.355Z,94675.45
2019-04-27T13:45:58.031Z,94682.42
2019-04-27T13:48:46.612Z,94658.42
2019-04-27T13:51:16.719Z,94648.90
2019-04-27T13:53:45.597Z,94631.20
2019-04-27T13:56:17.383Z,94636.59
2019-04-27T13:58:45.439Z,94654.76
2019-04-27T14:01:13.168Z,94664.98
2019-04-27T14:03:40.629Z,94677.52
2019-04-27T14:06:08.175Z,94682.27
2019-04-27T14:08:35.743Z,94675.70
2019-04-27T14:11:05.986Z,94675.47
2019-04-27T14:13:33.406Z,94670.90
2019-04-27T14:16:00.946Z,94665.19
2019-04-27T14:18:29.113Z,94679.35
2019-04-27T14:20:56.779Z,94676.30
2019-04-27T14:23:28.305Z,94670.38
2019-04-27T14:25:55.782Z,94669.64
2019-04-27T14:28:23.219Z,94661.98
2019-04-27T14:30:50.679Z,94674.88
2019-04-27T14:33:18.679Z,94686.53
2019-04-27T14:35:48.010Z,94700.91
2019-04-27T14:38:15.571Z,94710.72
2019-04-27T14:40:43.106Z,94714.65
2019-04-27T14:43:10.731Z,94718.14
2019-04-27T14:45:39.763Z,94724.58
2019-04-27T14:48:08.299Z,94738.92
2019-04-27T14:50:36.066Z,94760.60
2019-04-27T14:53:03.687Z,94771.95
2019-04-27T14:55:31.240Z,94798.75
2019-04-27T14:57:58.720Z,94826.76
2019-04-27T15:00:26.387Z,94864.56
2019-04-27T15:02:53.829Z,94878.34
2019-04-27T15:05:21.264Z,94878.22
2019-04-27T15:07:48.790Z,94883.59
2019-04-27T15:10:16.424Z,94879.55
2019-04-27T15:12:44.007Z,94888.16
2019-04-27T15:15:11.726Z,94884.78
2019-04-27T15:17:40.191Z,94889.52
2019-04-27T15:20:12.796Z,94900.48
2019-04-27T15:22:40.497Z,94899.95
2019-04-27T15:25:13.024Z,94908.05
2019-04-27T15:27:43.156Z,94901.59
2019-04-27T15:30:17.790Z,94907.23
2019-04-27T15:33:03.919Z,94917.03
2019-04-27T15:35:40.620Z,94927.47
2019-04-27T15:38:13.998Z,94925.53
2019-04-27T15:41:16.073Z,94913.06
2019-04-27T15:43:44.127Z,94919.13
2019-04-27T15:46:11.620Z,94923.05
2019-04-27T15:48:39.064Z,94937.08
2019-04-27T15:51:14.874Z,94934.91
2019-04-27T15:53:38.701Z,94926.88
2019-04-27T15:56:05.198Z,94934.75
2019-04-27T15:58:32.684Z,94929.38
2019-04-27T16:01:03.290Z,94937.09
2019-04-27T16:03:31.425Z,94928.55
2019-04-27T16:05:58.986Z,94932.03
2019-04-27T16:08:26.453Z,94927.19
2019-04-27T16:10:54.009Z,94922.72
2019-04-27T16:13:21.383Z,94925.14
2019-04-27T16:15:53.970Z,94920.77
2019-04-27T16:18:18.701Z,94920.08
2019-04-27T16:20:48.499Z,94920.59
2019-04-27T16:23:18.062Z,94910.39
2019-04-27T16:25:48.769Z,94914.28
2019-04-27T16:28:14.716Z,94901.03
2019-04-27T16:30:45.779Z,94901.80
2019-04-27T16:33:15.450Z,94897.62
2019-04-27T16:35:44.489Z,94899.94
2019-04-27T16:38:35.273Z,94891.92
2019-04-27T16:41:03.454Z,94867.98
2019-04-27T16:43:32.863Z,94839.03
2019-04-27T16:46:04.297Z,94819.09
2019-04-27T16:48:34.791Z,94820.74
2019-04-27T16:51:00.864Z,94795.67
2019-04-27T16:53:30.023Z,94750.43
2019-04-27T16:56:14.426Z,94775.08
2019-04-27T16:58:39.401Z,94800.93
2019-04-27T17:01:10.916Z,94818.07
2019-04-27T17:03:38.966Z,94807.47
2019-04-27T17:06:09.044Z,94809.76
2019-04-27T17:08:39.176Z,94803.39
2019-04-27T17:11:11.457Z,94804.20
2019-04-27T17:13:39.262Z,94805.59
2019-04-27T17:16:24.786Z,94788.70
2019-04-27T17:19:04.811Z,94788.23
2019-04-27T17:21:33.421Z,94777.12
2019-04-27T17:24:02.861Z,94766.55
2019-04-27T17:26:29.228Z,94763.67
2019-04-27T17:29:10.910Z,94758.21
2019-04-27T17:31:39.489Z,94760.38
2019-04-27T17:34:08.161Z,94764.17
2019-04-27T17:36:35.762Z,94773.08
2019-04-27T17:39:06.073Z,94760.20
2019-04-27T17:41:33.618Z,94774.15
2019-04-27T17:44:01.090Z,94768.84
2019-04-27T17:46:28.753Z,94773.70
2019-04-27T17:48:58.555Z,94768.80
2019-04-27T17:51:30.546Z,94770.08
2019-04-27T17:53:55.759Z,94773.62
2019-04-27T17:56:33.393Z,94778.94
2019-04-27T17:58:53.179Z,94789.67
2019-04-27T18:01:23.432Z,94798.80
2019-04-27T18:03:58.483Z,94797.31
2019-04-27T18:06:20.505Z,94811.62
2019-04-27T18:08:49.353Z,94815.25
2019-04-27T18:11:18.617Z,94815.81
2019-04-27T18:13:46.363Z,94827.75
2019-04-27T18:16:13.861Z,94838.25
2019-04-27T18:18:53.807Z,94843.20
2019-04-27T18:21:26.051Z,94850.00
2019-04-27T18:23:58.292Z,94860.06
2019-04-27T18:26:49.072Z,94866.73
2019-04-27T18:29:08.171Z,94881.91
2019-04-27T18:31:35.820Z,94882.66
2019-04-27T18:34:03.613Z,94875.98
2019-04-27T18:36:31.035Z,94878.91
2019-04-27T18:38:58.760Z,94880.91
2019-04-27T18:41:26.540Z,94883.75
2019-04-27T18:43:55.833Z,94871.37
2019-04-27T18:46:24.820Z,94872.66
2019-04-27T18:49:12.002Z,94877.55
2019-04-27T18:52:06.478Z,94876.67
2019-04-27T18:54:38.191Z,94885.38
2019-04-27T18:57:04.872Z,94884.30
2019-04-27T18:59:32.684Z,94884.02
2019-04-27T19:02:00.228Z,94885.94
2019-04-27T19:04:28.197Z,94890.66
2019-04-27T19:06:55.763Z,94889.07
2019-04-27T19:09:23.252Z,94891.22
2019-04-27T19:11:55.986Z,94889.86
2019-04-27T19:14:20.206Z,94879.93
2019-04-27T19:16:48.441Z,94883.22
2019-04-27T19:19:16.427Z,94873.28
2019-04-27T19:21:44.507Z,94874.23
2019-04-27T19:24:12.002Z,94871.03
2019-04-27T19:27:17.951Z,94865.50
2019-04-27T19:29:44.103Z,94867.09
2019-04-27T19:32:11.702Z,94868.56
2019-04-27T19:34:39.173Z,94867.68
2019-04-27T19:37:08.169Z,94871.19
2019-04-27T19:39:36.008Z,94871.13
2019-04-27T19:42:03.959Z,94878.90
2019-04-27T19:44:31.524Z,94878.51
2019-04-27T19:47:00.142Z,94885.99
2019-04-27T19:49:31.261Z,94879.42
2019-04-27T19:51:58.828Z,94875.16
2019-04-27T19:54:29.894Z,94872.44
2019-04-27T19:56:56.225Z,94878.16
2019-04-27T19:59:29.013Z,94869.05
2019-04-27T20:01:59.363Z,94865.98
2019-04-27T20:04:34.721Z,94876.58
2019-04-27T20:07:02.224Z,94865.67
2019-04-27T20:09:58.536Z,94859.73
2019-04-27T20:12:26.051Z,94865.63
2019-04-27T20:14:56.621Z,94868.34
2019-04-27T20:17:32.204Z,94856.59
2019-04-27T20:20:00.272Z,94858.25
2019-04-27T20:22:27.829Z,94859.77
2019-04-27T20:24:56.290Z,94854.92
2019-04-27T20:27:24.751Z,94852.52
2019-04-27T20:29:52.247Z,94846.73
2019-04-27T20:32:21.467Z,94853.04
2019-04-27T20:34:49.076Z,94840.92
2019-04-27T20:37:16.923Z,94843.72
2019-04-27T20:39:44.432Z,94843.91
2019-04-27T20:42:12.574Z,94833.63
2019-04-27T20:44:41.269Z,94834.77
2019-04-27T20:47:09.266Z,94832.87
2019-04-27T20:49:36.746Z,94838.23
2019-04-27T20:52:10.939Z,94836.36
2019-04-27T20:54:38.697Z,94837.12
2019-04-27T20:57:06.315Z,94835.95
2019-04-27T20:59:33.793Z,94831.05
2019-04-27T21:02:22.306Z,94820.35
2019-04-27T21:04:55.288Z,94816.48
2019-04-27T21:07:37.926Z,94822.73
2019-04-27T21:10:06.338Z,94818.23
2019-04-27T21:12:33.772Z,94818.06
2019-04-27T21:15:01.147Z,94814.66
2019-04-27T21:17:28.616Z,94812.70
2019-04-27T21:19:56.057Z,94817.27
2019-04-27T21:22:23.615Z,94823.52
2019-04-27T21:24:51.543Z,94822.23
2019-04-27T21:27:19.044Z,94821.44
2019-04-27T21:29:46.479Z,94816.31
2019-04-27T21:32:13.856Z,94823.48
2019-04-27T21:34:41.459Z,94818.34
2019-04-27T21:37:08.864Z,94816.42
2019-04-27T21:39:36.333Z,94815.86
2019-04-27T21:42:04.002Z,94811.73
2019-04-27T21:44:31.962Z,94811.05
2019-04-27T21:47:00.814Z,94804.92
2019-04-27T21:49:28.409Z,94811.55
2019-04-27T21:52:15.593Z,94823.63
2019-04-27T21:54:43.647Z,94815.66
2019-04-27T21:57:12.676Z,94821.09
2019-04-27T21:59:40.479Z,94813.31
2019-04-27T22:02:09.456Z,94821.16
2019-04-27T22:04:36.953Z,94818.77
2019-04-27T22:07:04.858Z,94815.02
2019-04-27T22:09:32.347Z,94818.11
2019-04-27T22:12:00.645Z,94821.98
2019-04-27T22:14:29.166Z,94818.36
2019-04-27T22:16:56.601Z,94825.35
2019-04-27T22:19:24.926Z,94831.64
2019-04-27T22:21:52.448Z,94823.51
2019-04-27T22:24:30.353Z,94836.55
2019-04-27T22:26:57.851Z,94819.92
2019-04-27T22:29:25.235Z,94822.37
2019-04-27T22:31:52.723Z,94813.91
2019-04-27T22:34:21.105Z,94819.66
2019-04-27T22:36:48.526Z,94829.72
2019-04-27T22:39:35.473Z,94835.32
2019-04-27T22:42:34.699Z,94824.70
2019-04-27T22:45:13.283Z,94825.65
2019-04-27T22:47:40.907Z,94822.18
2019-04-27T22:50:08.738Z,94828.94
2019-04-27T22:52:36.182Z,94821.78
2019-04-27T22:55:04.046Z,94816.51
2019-04-27T22:57:37.934Z,94807.30
2019-04-27T23:00:24.135Z,94798.31
2019-04-27T23:02:57.458Z,94808.13
2019-04-27T23:05:24.916Z,94806.09
2019-04-27T23:07:52.309Z,94799.86
2019-04-27T23:10:21.335Z,94803.09
2019-04-27T23:12:50.976Z,94799.32
2019-04-27T23:15:20.641Z,94803.13
2019-04-27T23:17:53.648Z,94803.73
2019-04-27T23:20:21.361Z,94814.72
2019-04-27T23:22:48.854Z,94803.66
2019-04-27T23:25:16.298Z,94795.30
2019-04-27T23:27:43.790Z,94801.32
2019-04-27T23:30:12.157Z,94806.19
2019-04-27T23:32:42.615Z,94806.05
2019-04-27T23:35:10.443Z,94798.36
2019-04-27T23:37:37.853Z,94806.27
2019-04-27T23:40:05.470Z,94813.63
2019-04-27T23:42:32.996Z,94811.11
2019-04-27T23:45:00.406Z,94803.75
2019-04-27T23:47:27.895Z,94809.66
2019-04-27T23:49:55.337Z,94807.99
2019-04-27T23:52:42.305Z,94805.02
2019-04-27T23:55:10.886Z,94802.77
2019-04-27T23:57:38.403Z,94801.73
